createdAt,value
2018-09-22T00:02:12.183Z,100130.87
2018-09-22T00:04:43.361Z,100132.54
2018-09-22T00:07:14.519Z,100127.47
2018-09-22T00:09:45.592Z,100133.48
2018-09-22T00:12:17.371Z,100136.11
2018-09-22T00:14:48.510Z,100127.78
2018-09-22T00:17:19.677Z,100137.05
2018-09-22T00:19:51.324Z,100142.97
2018-09-22T00:22:22.526Z,100140.56
2018-09-22T00:24:53.649Z,100148.89
2018-09-22T00:27:24.766Z,100148.14
2018-09-22T00:29:56.418Z,100138.72
2018-09-22T00:32:27.656Z,100140.94
2018-09-22T00:34:58.733Z,100151.99
2018-09-22T00:37:29.856Z,100152.72
2018-09-22T00:40:01.785Z,100148.01
2018-09-22T00:42:33.594Z,100149.22
2018-09-22T00:45:05.246Z,100160.55
2018-09-22T00:47:36.350Z,100163.90
2018-09-22T00:50:07.442Z,100163.59
2018-09-22T00:52:39.069Z,100169.19
2018-09-22T00:55:11.285Z,100179.94
2018-09-22T00:57:42.961Z,100174.38
2018-09-22T01:00:15.482Z,100180.77
2018-09-22T01:02:47.633Z,100180.45
2018-09-22T01:05:20.315Z,100190.98
2018-09-22T01:07:52.155Z,100189.53
2018-09-22T01:10:23.735Z,100188.39
2018-09-22T01:12:55.733Z,100173.90
2018-09-22T01:15:27.252Z,100188.22
2018-09-22T01:17:58.882Z,100196.16
2018-09-22T01:20:30.642Z,100202.45
2018-09-22T01:23:02.059Z,100192.33
2018-09-22T01:25:33.270Z,100200.77
2018-09-22T01:28:04.555Z,100206.91
2018-09-22T01:30:35.642Z,100214.38
2018-09-22T01:33:06.804Z,100205.42
2018-09-22T01:35:38.260Z,100210.81
2018-09-22T01:38:09.469Z,100205.68
2018-09-22T01:40:40.550Z,100198.70
2018-09-22T01:43:12.612Z,100205.83
2018-09-22T01:45:43.788Z,100201.09
2018-09-22T01:48:15.030Z,100197.03
2018-09-22T01:50:46.138Z,100204.28
2018-09-22T01:53:17.266Z,100200.09
2018-09-22T01:55:48.674Z,100200.42
2018-09-22T01:58:19.863Z,100199.62
2018-09-22T02:00:51.034Z,100208.64
2018-09-22T02:03:22.242Z,100217.39
2018-09-22T02:05:54.153Z,100214.62
2018-09-22T02:08:25.553Z,100235.48
2018-09-22T02:10:56.664Z,100223.54
2018-09-22T02:13:27.867Z,100215.62
2018-09-22T02:15:59.273Z,100213.37
2018-09-22T02:18:30.381Z,100224.14
2018-09-22T02:21:01.504Z,100232.33
2018-09-22T02:23:32.965Z,100234.02
2018-09-22T02:26:04.042Z,100237.39
2018-09-22T02:28:36.135Z,100251.45
2018-09-22T02:31:07.760Z,100247.80
2018-09-22T02:33:38.951Z,100249.13
2018-09-22T02:36:11.791Z,100250.61
2018-09-22T02:38:42.958Z,100243.87
2018-09-22T02:41:14.964Z,100250.09
2018-09-22T02:43:47.144Z,100264.97
2018-09-22T02:46:18.410Z,100252.77
2018-09-22T02:48:49.564Z,100263.16
2018-09-22T02:51:21.607Z,100264.66
2018-09-22T02:53:53.509Z,100268.87
2018-09-22T02:56:26.448Z,100280.02
2018-09-22T02:58:57.675Z,100275.58
2018-09-22T03:01:29.617Z,100273.80
2018-09-22T03:04:00.809Z,100277.89
2018-09-22T03:06:32.911Z,100290.89
2018-09-22T03:09:06.163Z,100300.35
2018-09-22T03:11:37.306Z,100296.96
2018-09-22T03:14:09.659Z,100218.27
2018-09-22T03:16:41.311Z,100304.69
2018-09-22T03:19:12.474Z,100307.44
2018-09-22T03:21:43.620Z,100311.73
2018-09-22T03:24:15.005Z,100307.20
2018-09-22T03:26:46.142Z,100299.08
2018-09-22T03:29:17.664Z,100281.36
2018-09-22T03:31:48.766Z,100231.93
2018-09-22T03:34:21.691Z,100291.86
2018-09-22T03:36:53.482Z,100291.13
2018-09-22T03:39:25.002Z,100302.97
2018-09-22T03:41:57.732Z,100314.09
2018-09-22T03:44:29.670Z,100292.50
2018-09-22T03:47:01.556Z,100313.48
2018-09-22T03:49:33.313Z,100309.82
2018-09-22T03:52:04.410Z,100315.87
2018-09-22T03:54:35.523Z,100297.58
2018-09-22T03:57:09.305Z,100307.57
2018-09-22T03:59:40.431Z,100302.83
2018-09-22T04:02:12.245Z,100290.64
2018-09-22T04:04:43.315Z,100309.04
2018-09-22T04:07:15.329Z,100302.63
2018-09-22T04:09:46.446Z,100303.59
2018-09-22T04:12:18.466Z,100316.22
2018-09-22T04:14:49.585Z,100312.00
2018-09-22T04:17:20.710Z,100306.87
2018-09-22T04:19:53.818Z,100295.89
2018-09-22T04:22:24.964Z,100302.33
2018-09-22T04:24:56.057Z,100316.03
2018-09-22T04:27:27.199Z,100319.42
2018-09-22T04:29:58.280Z,100315.56
2018-09-22T04:32:29.357Z,100315.42
2018-09-22T04:35:00.778Z,100318.75
2018-09-22T04:37:32.486Z,100322.56
2018-09-22T04:40:04.114Z,100321.17
2018-09-22T04:42:35.353Z,100322.52
2018-09-22T04:45:07.470Z,100317.00
2018-09-22T04:47:39.471Z,100324.93
2018-09-22T04:50:10.608Z,100322.19
2018-09-22T04:52:41.719Z,100337.01
2018-09-22T04:55:12.843Z,100347.53
2018-09-22T04:57:44.038Z,100351.82
2018-09-22T05:00:16.018Z,100353.61
2018-09-22T05:02:47.659Z,100354.63
2018-09-22T05:05:18.869Z,100369.22
2018-09-22T05:07:50.237Z,100371.30
2018-09-22T05:10:21.675Z,100376.84
2018-09-22T05:12:52.872Z,100390.05
2018-09-22T05:15:25.772Z,100380.10
2018-09-22T05:17:56.981Z,100393.60
2018-09-22T05:20:28.818Z,100391.72
2018-09-22T05:23:00.303Z,100393.44
2018-09-22T05:25:31.435Z,100391.67
2018-09-22T05:28:03.256Z,100395.75
2018-09-22T05:30:34.371Z,100400.13
2018-09-22T05:33:06.595Z,100407.79
2018-09-22T05:35:38.154Z,100409.76
2018-09-22T05:38:09.722Z,100411.44
2018-09-22T05:40:42.121Z,100406.63
2018-09-22T05:43:13.663Z,100401.50
2018-09-22T05:45:45.724Z,100414.08
2018-09-22T05:48:17.332Z,100414.58
2018-09-22T05:50:50.177Z,100416.90
2018-09-22T05:53:23.866Z,100418.92
2018-09-22T05:55:54.912Z,100421.04
2018-09-22T05:58:27.994Z,100427.45
2018-09-22T06:00:59.150Z,100432.99
2018-09-22T06:03:30.558Z,100433.80
2018-09-22T06:06:02.198Z,100434.05
2018-09-22T06:08:34.049Z,100426.91
2018-09-22T06:11:05.182Z,100429.80
2018-09-22T06:13:36.250Z,100422.37
2018-09-22T06:16:07.666Z,100444.23
2018-09-22T06:18:39.696Z,100434.13
2018-09-22T06:21:10.908Z,100452.30
2018-09-22T06:23:42.070Z,100467.30
2018-09-22T06:26:13.206Z,100458.91
2018-09-22T06:28:44.400Z,100449.03
2018-09-22T06:31:16.032Z,100461.80
2018-09-22T06:33:47.239Z,100464.48
2018-09-22T06:36:18.356Z,100466.58
2018-09-22T06:38:49.992Z,100457.93
2018-09-22T06:41:24.452Z,100459.34
2018-09-22T06:43:56.663Z,100458.94
2018-09-22T06:46:28.026Z,100449.27
2018-09-22T06:48:59.417Z,100453.89
2018-09-22T06:51:31.292Z,100451.92
2018-09-22T06:54:02.549Z,100456.30
2018-09-22T06:59:11.137Z,100454.85
2018-09-22T07:01:44.723Z,100473.02
2018-09-22T07:04:15.871Z,100478.44
2018-09-22T07:06:46.957Z,100477.54
2018-09-22T07:09:18.503Z,100458.55
2018-09-22T07:11:50.359Z,100454.50
2018-09-22T07:14:21.496Z,100447.48
2018-09-22T07:16:52.623Z,100448.00
2018-09-22T07:19:24.620Z,100439.57
2018-09-22T07:22:02.214Z,100439.89
2018-09-22T07:24:33.396Z,100440.31
2018-09-22T07:27:06.706Z,100437.90
2018-09-22T07:29:38.717Z,100442.27
2018-09-22T07:32:10.609Z,100451.64
2018-09-22T07:34:48.116Z,100444.56
2018-09-22T07:37:21.102Z,100452.97
2018-09-22T07:39:52.515Z,100460.14
2018-09-22T07:42:23.707Z,100462.94
2018-09-22T07:44:55.670Z,100467.63
2018-09-22T07:47:26.825Z,100474.19
2018-09-22T07:52:35.052Z,100456.91
2018-09-22T07:55:08.591Z,100451.67
2018-09-22T07:57:40.194Z,100455.11
2018-09-22T08:00:13.854Z,100455.98
2018-09-22T08:02:45.698Z,100466.35
2018-09-22T08:05:21.821Z,100473.88
2018-09-22T08:07:56.486Z,100482.09
2018-09-22T08:10:27.672Z,100491.84
2018-09-22T08:12:59.323Z,100491.89
2018-09-22T08:15:31.257Z,100492.62
2018-09-22T08:18:03.279Z,100498.59
2018-09-22T08:20:34.978Z,100502.76
2018-09-22T08:23:07.720Z,100505.80
2018-09-22T08:25:39.111Z,100504.53
2018-09-22T08:28:10.205Z,100505.70
2018-09-22T08:30:41.958Z,100493.63
2018-09-22T08:33:14.522Z,100488.37
2018-09-22T08:35:47.721Z,100485.73
2018-09-22T08:38:19.910Z,100488.53
2018-09-22T08:40:51.220Z,100475.34
2018-09-22T08:43:23.060Z,100471.51
2018-09-22T08:45:55.233Z,100469.12
2018-09-22T08:48:26.947Z,100457.45
2018-09-22T08:51:00.575Z,100450.91
2018-09-22T08:53:32.037Z,100451.94
2018-09-22T08:56:03.235Z,100451.19
2018-09-22T08:58:34.666Z,100446.41
2018-09-22T09:01:06.495Z,100458.28
2018-09-22T09:03:39.217Z,100466.84
2018-09-22T09:06:10.481Z,100476.81
2018-09-22T09:08:41.723Z,100476.06
2018-09-22T09:11:15.801Z,100478.08
2018-09-22T09:13:47.189Z,100472.03
2018-09-22T09:16:18.533Z,100474.23
2018-09-22T09:18:50.665Z,100467.30
2018-09-22T09:21:22.649Z,100455.80
2018-09-22T09:23:55.793Z,100442.72
2018-09-22T09:26:26.961Z,100427.37
2018-09-22T09:28:58.014Z,100411.89
2018-09-22T09:31:29.157Z,100407.22
2018-09-22T09:34:01.173Z,100415.57
2018-09-22T09:36:32.909Z,100412.52
2018-09-22T09:39:06.539Z,100431.78
2018-09-22T09:41:37.690Z,100421.28
2018-09-22T09:44:09.757Z,100423.42
2018-09-22T09:46:42.308Z,100415.06
2018-09-22T09:49:14.414Z,100404.88
2018-09-22T09:51:46.322Z,100411.41
2018-09-22T09:54:17.829Z,100320.45
2018-09-22T09:56:51.983Z,100405.33
2018-09-22T09:59:23.124Z,100407.78
2018-09-22T10:01:57.305Z,100409.48
2018-09-22T10:04:31.114Z,100416.13
2018-09-22T10:07:02.519Z,100408.23
2018-09-22T10:09:34.179Z,100430.54
2018-09-22T10:12:05.790Z,100423.38
2018-09-22T10:14:37.671Z,100390.59
2018-09-22T10:17:11.784Z,100417.70
2018-09-22T10:19:45.629Z,100414.41
2018-09-22T10:22:21.348Z,100405.69
2018-09-22T10:24:52.501Z,100416.48
2018-09-22T10:27:23.557Z,100408.02
2018-09-22T10:29:56.475Z,100409.77
2018-09-22T10:32:33.701Z,100401.07
2018-09-22T10:35:06.330Z,100392.33
2018-09-22T10:37:39.584Z,100384.97
2018-09-22T10:40:12.837Z,100396.72
2018-09-22T10:42:44.050Z,100384.30
2018-09-22T10:45:16.746Z,100367.55
2018-09-22T10:47:48.681Z,100357.11
2018-09-22T10:50:21.135Z,100264.84
2018-09-22T10:52:52.365Z,100354.38
2018-09-22T10:55:23.787Z,100346.54
2018-09-22T10:57:55.895Z,100343.08
2018-09-22T11:00:29.800Z,100341.49
2018-09-22T11:05:40.511Z,100347.11
2018-09-22T11:08:11.674Z,100355.16
2018-09-22T11:10:43.999Z,100345.33
2018-09-22T11:13:15.183Z,100282.66
2018-09-22T11:15:47.316Z,100350.11
2018-09-22T11:18:19.851Z,100339.61
2018-09-22T11:20:51.018Z,100339.56
2018-09-22T11:23:23.371Z,100337.72
2018-09-22T11:25:54.579Z,100343.84
2018-09-22T11:28:26.774Z,100344.91
2018-09-22T11:30:58.562Z,100338.99
2018-09-22T11:33:29.801Z,100321.30
2018-09-22T11:36:01.203Z,100322.82
2018-09-22T11:38:32.702Z,100327.48
2018-09-22T11:41:05.656Z,100318.17
2018-09-22T11:43:38.410Z,100331.16
2018-09-22T11:46:10.922Z,100330.34
2018-09-22T11:48:42.290Z,100323.00
2018-09-22T11:51:13.417Z,100321.54
2018-09-22T11:53:45.824Z,100313.28
2018-09-22T11:56:18.349Z,100302.89
2018-09-22T11:58:50.393Z,100306.61
2018-09-22T12:01:24.106Z,100299.47
2018-09-22T12:03:55.825Z,100280.34
2018-09-22T12:06:27.541Z,100284.41
2018-09-22T12:09:00.921Z,100293.11
2018-09-22T12:11:33.273Z,100282.47
2018-09-22T12:14:06.607Z,100287.59
2018-09-22T12:16:38.148Z,100276.26
2018-09-22T12:19:11.736Z,100269.05
2018-09-22T12:21:43.648Z,100269.05
2018-09-22T12:24:16.522Z,100267.38
2018-09-22T12:26:49.279Z,100263.36
2018-09-22T12:29:21.561Z,100262.62
2018-09-22T12:31:52.703Z,100258.66
2018-09-22T12:34:27.162Z,100247.08
2018-09-22T12:36:58.280Z,100235.53
2018-09-22T12:39:30.403Z,100241.58
2018-09-22T12:42:01.552Z,100238.38
2018-09-22T12:44:33.599Z,100232.59
2018-09-22T12:47:05.034Z,100238.97
2018-09-22T12:49:36.190Z,100231.02
2018-09-22T12:52:08.210Z,100239.93
2018-09-22T12:54:40.316Z,100251.06
2018-09-22T12:57:11.420Z,100255.05
2018-09-22T12:59:43.971Z,100254.34
2018-09-22T13:02:15.719Z,100261.08
2018-09-22T13:04:46.999Z,100268.98
2018-09-22T13:07:20.419Z,100259.43
2018-09-22T13:09:53.925Z,100245.11
2018-09-22T13:12:25.078Z,100247.56
2018-09-22T13:14:58.663Z,100242.62
2018-09-22T13:17:31.332Z,100247.56
2018-09-22T13:20:03.538Z,100237.61
2018-09-22T13:22:36.147Z,100247.52
2018-09-22T13:25:08.534Z,100252.48
2018-09-22T13:27:39.654Z,100237.56
2018-09-22T13:30:13.295Z,100238.03
2018-09-22T13:32:45.331Z,100241.71
2018-09-22T13:35:18.034Z,100235.47
2018-09-22T13:37:49.745Z,100240.91
2018-09-22T13:40:21.523Z,100237.82
2018-09-22T13:42:53.971Z,100100.41
2018-09-22T13:45:27.243Z,100210.52
2018-09-22T13:50:56.709Z,100221.04
2018-09-22T13:53:32.507Z,100217.54
2018-09-22T13:56:07.768Z,100208.94
2018-09-22T13:58:43.612Z,100221.48
2018-09-22T14:01:28.026Z,100223.89
2018-09-22T14:04:05.267Z,100228.50
2018-09-22T14:06:37.608Z,100222.54
2018-09-22T14:09:20.854Z,100218.33
2018-09-22T14:11:54.109Z,100209.31
2018-09-22T14:14:25.555Z,100205.98
2018-09-22T14:16:59.079Z,100204.98
2018-09-22T14:19:36.457Z,100173.16
2018-09-22T14:22:08.249Z,100182.08
2018-09-22T14:24:43.429Z,100173.92
2018-09-22T14:27:14.634Z,100178.45
2018-09-22T14:29:48.567Z,100173.22
2018-09-22T14:32:21.371Z,100165.34
2018-09-22T14:34:53.614Z,100181.17
2018-09-22T14:37:28.306Z,100171.55
2018-09-22T14:40:00.915Z,100171.52
2018-09-22T14:42:33.557Z,100172.62
2018-09-22T14:45:06.471Z,100185.80
2018-09-22T14:47:37.614Z,100175.87
2018-09-22T14:50:09.365Z,100179.84
2018-09-22T14:52:40.490Z,100172.05
2018-09-22T14:55:12.396Z,100182.52
2018-09-22T14:57:43.574Z,100180.78
2018-09-22T15:00:17.072Z,100186.96
2018-09-22T15:02:48.231Z,100164.12
2018-09-22T15:05:20.229Z,100179.36
2018-09-22T15:07:54.063Z,100173.43
2018-09-22T15:10:25.205Z,100160.31
2018-09-22T15:12:59.220Z,100171.76
2018-09-22T15:15:31.086Z,100162.23
2018-09-22T15:18:02.511Z,100151.01
2018-09-22T15:20:33.672Z,100144.85
2018-09-22T15:23:05.409Z,100154.56
2018-09-22T15:25:38.438Z,100142.28
2018-09-22T15:28:11.563Z,100122.65
2018-09-22T15:30:43.060Z,100130.38
2018-09-22T15:33:15.011Z,100115.33
2018-09-22T15:35:47.071Z,100116.11
2018-09-22T15:38:20.547Z,100100.16
2018-09-22T15:40:51.609Z,100127.77
2018-09-22T15:43:23.897Z,100135.13
2018-09-22T15:45:56.241Z,100132.34
2018-09-22T15:48:28.361Z,100105.78
2018-09-22T15:50:59.586Z,100046.63
2018-09-22T15:53:31.038Z,100123.29
2018-09-22T15:56:03.090Z,100120.69
2018-09-22T15:58:35.802Z,100120.91
2018-09-22T16:01:09.292Z,100119.73
2018-09-22T16:03:41.891Z,100119.00
2018-09-22T16:06:13.085Z,100126.38
2018-09-22T16:08:44.908Z,100125.09
2018-09-22T16:11:19.723Z,100129.20
2018-09-22T16:13:50.905Z,100134.90
2018-09-22T16:16:24.138Z,100146.58
2018-09-22T16:18:56.543Z,100133.78
2018-09-22T16:21:28.442Z,100137.23
2018-09-22T16:23:59.674Z,100141.05
2018-09-22T16:26:31.120Z,100143.74
2018-09-22T16:29:03.124Z,100149.88
2018-09-22T16:31:36.014Z,100134.69
2018-09-22T16:34:08.106Z,100149.96
2018-09-22T16:36:42.758Z,100142.34
2018-09-22T16:39:15.287Z,100141.24
2018-09-22T16:41:46.497Z,100133.64
2018-09-22T16:44:17.595Z,100148.09
2018-09-22T16:46:49.314Z,100148.83
2018-09-22T16:49:22.620Z,100161.48
2018-09-22T16:51:53.996Z,100156.83
2018-09-22T16:54:25.083Z,100160.50
2018-09-22T16:56:56.459Z,100162.63
2018-09-22T16:59:31.507Z,100181.36
2018-09-22T17:02:03.469Z,100192.88
2018-09-22T17:04:34.886Z,100184.51
2018-09-22T17:07:09.206Z,100197.13
2018-09-22T17:09:42.164Z,100203.02
2018-09-22T17:12:15.567Z,100203.33
2018-09-22T17:14:47.975Z,100197.61
2018-09-22T17:17:21.223Z,100195.94
2018-09-22T17:19:54.325Z,100194.77
2018-09-22T17:22:27.527Z,100196.69
2018-09-22T17:24:58.635Z,100195.70
2018-09-22T17:27:30.300Z,100200.91
2018-09-22T17:30:02.311Z,100198.34
2018-09-22T17:32:34.378Z,100202.27
2018-09-22T17:35:12.213Z,100207.23
2018-09-22T17:37:43.389Z,100208.15
2018-09-22T17:40:15.512Z,100203.48
2018-09-22T17:42:47.519Z,100202.44
2018-09-22T17:45:23.492Z,100194.91
2018-09-22T17:47:56.777Z,100190.47
2018-09-22T17:50:29.518Z,100188.56
2018-09-22T17:53:02.206Z,100189.41
2018-09-22T17:55:33.379Z,100195.99
2018-09-22T17:58:06.467Z,100194.36
2018-09-22T18:00:39.367Z,100196.65
2018-09-22T18:03:11.956Z,100206.55
2018-09-22T18:05:44.558Z,100199.90
2018-09-22T18:08:17.151Z,100200.13
2018-09-22T18:10:48.460Z,100201.05
2018-09-22T18:13:19.710Z,100192.98
2018-09-22T18:15:50.883Z,100196.27
2018-09-22T18:18:23.195Z,100190.03
2018-09-22T18:21:04.576Z,100192.02
2018-09-22T18:23:35.815Z,100195.66
2018-09-22T18:26:12.206Z,100194.31
2018-09-22T18:28:43.429Z,100191.22
2018-09-22T18:31:16.240Z,100194.62
2018-09-22T18:33:49.194Z,100195.44
2018-09-22T18:36:22.038Z,100183.80
2018-09-22T18:38:53.380Z,100204.69
2018-09-22T18:41:25.474Z,100199.71
2018-09-22T18:43:58.516Z,100200.13
2018-09-22T18:46:33.019Z,100189.91
2018-09-22T18:49:05.287Z,100170.02
2018-09-22T18:51:36.788Z,100163.49
2018-09-22T18:54:09.779Z,100163.27
2018-09-22T18:56:40.987Z,100176.02
2018-09-22T18:59:12.459Z,100177.65
2018-09-22T19:01:44.398Z,100189.91
2018-09-22T19:04:15.650Z,100202.78
2018-09-22T19:06:47.578Z,100196.91
2018-09-22T19:09:20.794Z,100193.36
2018-09-22T19:11:56.613Z,100188.63
2018-09-22T19:15:04.287Z,100181.65
2018-09-22T19:17:42.619Z,100168.45
2018-09-22T19:20:23.419Z,100183.50
2018-09-22T19:22:58.622Z,100132.18
2018-09-22T19:25:34.488Z,100186.97
2018-09-22T19:28:12.017Z,100200.48
2018-09-22T19:30:50.308Z,100173.14
2018-09-22T19:33:57.520Z,100174.78
2018-09-22T19:36:35.340Z,100104.63
2018-09-22T19:39:17.746Z,100171.48
2018-09-22T19:41:56.562Z,100180.19
2018-09-22T19:44:37.420Z,100178.41
2018-09-22T19:48:15.839Z,100167.38
2018-09-22T19:50:58.432Z,100174.48
2018-09-22T19:53:33.450Z,100172.20
2018-09-22T19:56:11.467Z,100177.80
2018-09-22T19:58:44.607Z,100169.06
2018-09-22T20:01:19.437Z,100164.59
2018-09-22T20:03:53.109Z,100164.50
2018-09-22T20:06:26.447Z,100175.30
2018-09-22T20:08:58.590Z,100180.09
2018-09-22T20:11:30.397Z,100181.78
2018-09-22T20:14:05.499Z,100174.83
2018-09-22T20:16:41.189Z,100162.12
2018-09-22T20:19:14.362Z,100163.57
2018-09-22T20:21:46.455Z,100170.33
2018-09-22T20:24:19.100Z,100168.47
2018-09-22T20:26:51.561Z,100168.87
2018-09-22T20:29:25.580Z,100169.16
2018-09-22T20:32:04.342Z,100160.58
2018-09-22T20:34:46.039Z,100166.84
2018-09-22T20:37:21.807Z,100157.81
2018-09-22T20:39:56.526Z,100160.27
2018-09-22T20:42:29.668Z,100169.95
2018-09-22T20:45:00.865Z,100161.03
2018-09-22T20:47:35.250Z,100152.52
2018-09-22T20:50:09.331Z,100149.21
2018-09-22T20:52:42.026Z,100161.95
2018-09-22T20:55:15.778Z,100160.50
2018-09-22T20:57:50.528Z,100144.65
2018-09-22T21:00:24.174Z,100070.39
2018-09-22T21:02:55.296Z,100146.61
2018-09-22T21:05:29.658Z,100162.02
2018-09-22T21:08:03.374Z,100161.30
2018-09-22T21:10:35.409Z,100152.52
2018-09-22T21:13:06.594Z,100129.39
2018-09-22T21:15:37.825Z,100156.61
2018-09-22T21:18:11.718Z,100165.32
2018-09-22T21:20:44.015Z,100173.22
2018-09-22T21:23:15.524Z,100161.55
2018-09-22T21:25:46.769Z,100116.88
2018-09-22T21:28:18.742Z,100137.80
2018-09-22T21:30:50.681Z,100141.52
2018-09-22T21:33:24.151Z,100144.83
2018-09-22T21:35:56.696Z,100147.58
2018-09-22T21:38:30.339Z,100140.52
2018-09-22T21:41:02.849Z,100146.49
2018-09-22T21:43:34.876Z,100148.02
2018-09-22T21:46:07.053Z,100141.52
2018-09-22T21:48:39.467Z,100129.05
2018-09-22T21:51:10.871Z,100124.55
2018-09-22T21:53:43.227Z,100130.62
2018-09-22T21:56:15.875Z,100132.26
2018-09-22T21:58:47.142Z,100129.38
2018-09-22T22:01:23.450Z,100136.31
2018-09-22T22:03:54.848Z,100119.64
2018-09-22T22:06:33.936Z,100119.33
2018-09-22T22:09:07.980Z,100107.00
2018-09-22T22:11:40.486Z,100118.58
2018-09-22T22:14:13.866Z,100121.95
2018-09-22T22:16:44.995Z,100111.66
2018-09-22T22:19:16.224Z,100109.91
2018-09-22T22:21:48.486Z,100103.46
2018-09-22T22:24:19.656Z,100117.88
2018-09-22T22:26:53.211Z,100118.83
2018-09-22T22:29:24.371Z,100119.98
2018-09-22T22:31:54.740Z,100110.64
2018-09-22T22:34:26.967Z,100118.52
2018-09-22T22:36:59.028Z,100108.52
2018-09-22T22:39:30.850Z,100108.10
2018-09-22T22:42:03.636Z,100111.33
2018-09-22T22:44:34.796Z,100086.86
2018-09-22T22:47:05.881Z,100109.52
2018-09-22T22:49:37.401Z,100100.49
2018-09-22T22:52:13.469Z,100098.55
2018-09-22T22:54:46.197Z,100098.58
2018-09-22T22:57:18.248Z,100103.55
2018-09-22T22:59:50.787Z,100094.76
2018-09-22T23:02:22.329Z,100097.37
2018-09-22T23:04:54.447Z,100094.99
2018-09-22T23:07:28.761Z,100092.52
2018-09-22T23:10:00.525Z,100081.59
2018-09-22T23:12:32.578Z,100081.27
2018-09-22T23:15:07.927Z,100072.67
2018-09-22T23:17:39.082Z,100083.45
2018-09-22T23:20:10.548Z,100084.57
2018-09-22T23:22:45.361Z,100094.09
2018-09-22T23:25:17.167Z,100085.52
2018-09-22T23:27:50.403Z,100079.52
2018-09-22T23:30:24.318Z,100090.81
2018-09-22T23:32:55.778Z,100074.73
2018-09-22T23:35:31.587Z,100069.56
2018-09-22T23:38:02.707Z,100069.56
2018-09-22T23:40:36.417Z,100065.22
2018-09-22T23:43:08.702Z,100059.62
2018-09-22T23:45:39.930Z,100057.45
2018-09-22T23:48:11.455Z,100052.88
2018-09-22T23:50:41.870Z,100060.97
2018-09-22T23:53:14.012Z,100042.83
2018-09-22T23:55:47.322Z,100046.77
2018-09-22T23:58:18.511Z,100039.41
